Terminal Aerodrome Forecast
Issued by NWS

Home | Current Version | Previous Version | Text Only | Print | Product List | Glossary Off
Versions: 1 2 3 4 5 6 7 8 9 10 11 12 13 14 15 16 17 18 19 20 21 22

508
FTUS43 KBIS 202211 AAB
TAFDIK
TAF AMD
KDIK 202211Z 2022/2118 30008KT P6SM BKN110
     FM210700 30006KT 6SM BR BKN100
     FM211000 30006KT 3/4SM BR BKN008
     FM211500 30006KT 2SM BR OVC008=

USA.gov is the U.S. government's official web portal to all federal, state and local government web resources and services.